Time;durP1;ratioP1;P1;durP2;ratioP2;P2;SDS_P1;SDS_P2;PMS_P1;PMS_P2;Temp;Humidity;BMP_temperature;BMP_pressure;BME280_temperature;BME280_humidity;BME280_pressure;Samples;Min_cycle;Max_cycle;Signal;HPM_P1;HPM_P2
2024/03/23 00:00:30;;;;;;;2.08;1.50;;;;;;;11.08;39.06;98965.75;4976062;28;20110;-77
2024/03/23 00:02:56;;;;;;;2.20;1.38;;;;;;;11.03;39.03;98953.88;4958976;28;20462;-76
2024/03/23 00:05:23;;;;;;;3.92;1.77;;;;;;;11.01;39.27;98955.78;4942747;28;20069;-77
2024/03/23 00:07:53;;;;;;;3.30;1.70;;;;;;;10.97;39.20;98953.50;4976122;28;20113;-76
2024/03/23 00:10:22;;;;;;;2.83;1.65;;;;;;;10.98;39.22;98953.38;4975925;28;20031;-76
2024/03/23 00:12:49;;;;;;;2.33;1.50;;;;;;;10.95;39.29;98953.63;4976197;28;20030;-77
2024/03/23 00:15:15;;;;;;;3.38;1.80;;;;;;;10.95;39.34;98956.22;4958941;28;20096;-76
2024/03/23 00:17:42;;;;;;;2.53;1.63;;;;;;;10.93;39.46;98954.69;4959383;28;20125;-76
2024/03/23 00:20:09;;;;;;;3.03;1.92;;;;;;;10.89;39.73;98945.41;4958760;28;20126;-77
2024/03/23 00:22:35;;;;;;;2.70;1.65;;;;;;;10.85;39.50;98945.63;4958809;28;20034;-76
2024/03/23 00:25:02;;;;;;;2.55;1.70;;;;;;;10.80;39.77;98952.13;4958628;28;20054;-76
2024/03/23 00:27:28;;;;;;;3.30;1.50;;;;;;;10.78;39.70;98948.81;4958872;28;20558;-77
2024/03/23 00:29:55;;;;;;;4.18;1.70;;;;;;;10.74;39.89;98950.00;4958754;28;20027;-76
2024/03/23 00:32:21;;;;;;;2.90;1.67;;;;;;;10.74;39.97;98950.00;4926540;28;20139;-77
2024/03/23 00:34:48;;;;;;;2.35;1.60;;;;;;;10.71;40.09;98953.66;4958676;28;20127;-78
2024/03/23 00:37:14;;;;;;;3.70;2.30;;;;;;;10.66;40.02;98956.59;4958416;28;20031;-78
2024/03/23 00:39:41;;;;;;;6.60;4.43;;;;;;;10.63;40.23;98956.81;4975507;28;20026;-78
2024/03/23 00:42:07;;;;;;;10.35;6.03;;;;;;;10.60;40.21;98953.63;4958099;28;20118;-78
2024/03/23 00:44:34;;;;;;;14.13;8.20;;;;;;;10.56;40.37;98952.97;4975341;28;20026;-78
2024/03/23 00:47:00;;;;;;;19.00;10.30;;;;;;;10.55;40.30;98946.13;4958768;28;20121;-78
2024/03/23 00:49:27;;;;;;;18.10;10.52;;;;;;;10.52;40.42;98948.13;4976179;28;20534;-77
2024/03/23 00:51:53;;;;;;;17.27;9.80;;;;;;;10.49;40.51;98943.94;4965300;28;20409;-76
2024/03/23 00:54:19;;;;;;;13.50;8.55;;;;;;;10.46;40.73;98952.00;4995063;28;20113;-76
2024/03/23 00:56:44;;;;;;;13.65;7.93;;;;;;;10.41;40.80;98944.50;4979098;28;20478;-78
2024/03/23 00:59:10;;;;;;;11.18;7.28;;;;;;;10.38;40.84;98955.16;4964042;28;20037;-78
2024/03/23 01:01:35;;;;;;;9.10;5.85;;;;;;;10.33;40.89;98944.22;4977015;28;20038;-77
2024/03/23 01:04:01;;;;;;;9.57;5.47;;;;;;;10.31;40.84;98943.47;4961361;28;20038;-76
2024/03/23 01:06:26;;;;;;;8.93;5.20;;;;;;;10.32;41.08;98950.34;4961511;28;20495;-76
2024/03/23 01:08:52;;;;;;;8.25;4.85;;;;;;;10.28;41.04;98943.69;4961175;28;20149;-76
2024/03/23 01:11:17;;;;;;;6.53;4.22;;;;;;;10.28;41.06;98946.31;4960981;28;20124;-76
2024/03/23 01:13:43;;;;;;;5.53;3.83;;;;;;;10.31;40.99;98949.53;4960789;28;20050;-76
2024/03/23 01:16:08;;;;;;;6.85;3.60;;;;;;;10.29;40.87;98940.97;4961378;28;20031;-79
2024/03/23 01:18:34;;;;;;;5.50;3.50;;;;;;;10.28;40.86;98933.25;4977025;28;20054;-78
2024/03/23 01:20:59;;;;;;;5.45;3.25;;;;;;;10.34;41.21;98937.22;4977060;28;20030;-77
2024/03/23 01:23:25;;;;;;;5.13;3.13;;;;;;;10.31;40.84;98931.25;4976351;28;20043;-79
2024/03/23 01:25:54;;;;;;;4.35;2.60;;;;;;;10.29;40.97;98929.69;4961014;28;20452;-78
2024/03/23 01:28:20;;;;;;;4.78;2.80;;;;;;;10.19;40.73;98921.69;4945108;28;20049;-78
2024/03/23 01:30:46;;;;;;;4.72;2.97;;;;;;;10.23;40.89;98930.97;4977226;28;20582;-78
2024/03/23 01:33:12;;;;;;;3.75;2.45;;;;;;;10.16;40.84;98921.91;4960889;28;20038;-78
2024/03/23 01:35:37;;;;;;;4.32;2.70;;;;;;;10.12;40.87;98923.06;4960958;28;20053;-77
2024/03/23 01:38:03;;;;;;;3.15;2.15;;;;;;;10.08;41.08;98924.25;4976970;28;20077;-78
2024/03/23 01:40:32;;;;;;;3.38;2.10;;;;;;;10.07;41.11;98928.63;4960092;28;20108;-79
2024/03/23 01:43:10;;;;;;;3.35;2.25;;;;;;;10.04;41.10;98928.00;4976651;28;20058;-77
2024/03/23 01:45:35;;;;;;;;;;;;;;;10.00;41.29;98929.19;4961293;28;20041;-76
2024/03/23 01:48:01;;;;;;;3.05;2.00;;;;;;;9.92;41.49;98930.53;4976308;28;19929;-77
2024/03/23 01:50:27;;;;;;;2.85;2.00;;;;;;;9.88;41.50;98936.06;4976639;28;20097;-77
2024/03/23 01:52:52;;;;;;;2.50;1.90;;;;;;;9.84;41.57;98929.44;4960578;28;20108;-76
2024/03/23 01:55:18;;;;;;;3.50;2.33;;;;;;;9.81;41.57;98922.63;4959965;28;20022;-78
2024/03/23 01:57:43;;;;;;;3.17;2.05;;;;;;;9.83;41.41;98922.53;4959929;28;20065;-77
2024/03/23 02:00:12;;;;;;;2.78;1.88;;;;;;;9.79;41.54;98927.13;4976833;28;20037;-78
2024/03/23 02:02:42;;;;;;;4.43;2.10;;;;;;;9.78;41.57;98934.09;4976790;28;20033;-77
2024/03/23 02:05:08;;;;;;;5.53;2.60;;;;;;;9.77;41.66;98929.84;4976541;28;20038;-77
2024/03/23 02:07:34;;;;;;;6.32;2.10;;;;;;;9.71;41.73;98921.59;4944133;28;20405;-77
2024/03/23 02:10:00;;;;;;;8.27;2.10;;;;;;;9.67;41.52;98921.00;4960341;28;20026;-77
2024/03/23 02:12:25;;;;;;;3.35;2.10;;;;;;;9.64;41.63;98922.97;4960444;28;20034;-77
2024/03/23 02:14:51;;;;;;;5.10;2.47;;;;;;;9.65;41.64;98924.66;4960016;28;20449;-77
2024/03/23 02:17:16;;;;;;;3.72;2.20;;;;;;;9.62;41.58;98920.47;4960347;28;20045;-78
2024/03/23 02:19:42;;;;;;;4.95;2.30;;;;;;;9.64;41.71;98922.97;4993787;28;20030;-77
2024/03/23 02:22:07;;;;;;;4.40;2.20;;;;;;;9.64;41.79;98922.97;4993108;28;20413;-77
2024/03/23 02:24:34;;;;;;;2.72;1.98;;;;;;;9.61;41.46;98921.41;4959753;28;20030;-77
2024/03/23 02:26:59;;;;;;;3.95;2.13;;;;;;;9.58;41.71;98917.28;4959932;28;20037;-77
2024/03/23 02:29:25;;;;;;;4.97;2.50;;;;;;;9.59;41.52;98921.53;4959688;28;20030;-77
2024/03/23 02:31:50;;;;;;;3.40;2.30;;;;;;;9.56;41.77;98915.69;4975676;28;20042;-76
2024/03/23 02:34:16;;;;;;;3.58;2.40;;;;;;;9.51;41.63;98910.78;4975321;28;20587;-77
2024/03/23 02:36:41;;;;;;;4.68;2.58;;;;;;;9.51;41.94;98921.22;4959802;28;20412;-81
2024/03/23 02:39:07;;;;;;;4.15;2.75;;;;;;;9.46;41.80;98914.69;4960102;28;20493;-77
2024/03/23 02:41:32;;;;;;;4.20;2.60;;;;;;;9.42;42.11;98903.59;4975773;28;20046;-77
2024/03/23 02:43:57;;;;;;;5.22;2.70;;;;;;;9.44;42.17;98916.53;4959585;28;20409;-77
2024/03/23 02:46:23;;;;;;;3.45;2.60;;;;;;;9.36;42.14;98904.88;4959499;28;20093;-77
2024/03/23 02:48:49;;;;;;;5.50;2.63;;;;;;;9.38;42.06;98923.03;4959359;28;20053;-77
2024/03/23 02:51:14;;;;;;;3.40;2.38;;;;;;;9.36;42.10;98922.28;4943177;28;20117;-77
2024/03/23 02:53:40;;;;;;;3.92;2.40;;;;;;;9.34;42.48;98917.16;4959852;28;20108;-77
2024/03/23 02:56:06;;;;;;;3.78;2.88;;;;;;;9.33;42.57;98920.72;4975749;28;20046;-77
2024/03/23 02:58:31;;;;;;;4.05;2.70;;;;;;;9.24;42.24;98914.34;4960728;28;20061;-77
2024/03/23 03:00:57;;;;;;;3.53;2.47;;;;;;;9.28;42.43;98924.56;4959557;28;20035;-76
2024/03/23 03:03:25;;;;;;;4.50;2.67;;;;;;;9.25;42.55;98928.22;4959532;28;20026;-77
2024/03/23 03:05:56;;;;;;;3.83;2.77;;;;;;;9.17;42.57;98915.72;4944399;28;20386;-77
2024/03/23 03:08:22;;;;;;;4.30;2.45;;;;;;;9.17;42.42;98925.28;4961770;28;20034;-77
2024/03/23 03:10:47;;;;;;;4.22;2.67;;;;;;;9.18;42.35;98925.19;4975871;28;20148;-77
2024/03/23 03:13:13;;;;;;;5.25;2.25;;;;;;;9.12;42.57;98917.78;4965668;28;20033;-77
2024/03/23 03:15:40;;;;;;;4.25;2.90;;;;;;;9.17;42.63;98933.97;4965826;28;20030;-77
2024/03/23 03:18:06;;;;;;;4.05;2.88;;;;;;;9.15;42.79;98928.00;4965852;28;20034;-77
2024/03/23 03:20:31;;;;;;;4.00;2.97;;;;;;;9.12;42.79;98924.78;4965458;28;20149;-77
2024/03/23 03:22:57;;;;;;;3.67;2.58;;;;;;;9.11;42.69;98926.56;4965518;28;20041;-77
2024/03/23 03:25:22;;;;;;;4.38;2.40;;;;;;;9.07;42.72;98919.03;4964947;28;20416;-77
2024/03/23 03:27:48;;;;;;;3.95;2.40;;;;;;;9.07;42.87;98922.47;4980720;28;20051;-77
2024/03/23 03:30:13;;;;;;;3.90;2.70;;;;;;;9.12;42.70;98927.38;4965536;28;20096;-77
2024/03/23 03:32:39;;;;;;;3.45;2.22;;;;;;;9.04;42.64;98917.47;4981488;28;20125;-77
2024/03/23 03:35:04;;;;;;;3.30;2.42;;;;;;;9.09;42.81;98927.59;4965623;28;20072;-77
2024/03/23 03:37:30;;;;;;;4.32;2.60;;;;;;;9.04;42.73;98933.94;4965524;28;20034;-77
2024/03/23 03:39:55;;;;;;;4.55;2.88;;;;;;;9.06;42.89;98928.59;4965853;28;20026;-77
2024/03/23 03:42:21;;;;;;;4.28;2.30;;;;;;;9.05;43.23;98927.78;4964799;28;20043;-78
2024/03/23 03:44:46;;;;;;;3.55;2.40;;;;;;;9.05;42.79;98934.78;4965235;28;20034;-78
2024/03/23 03:47:12;;;;;;;4.25;2.20;;;;;;;8.99;42.94;98929.97;4982050;28;20393;-77
2024/03/23 03:49:37;;;;;;;5.68;2.83;;;;;;;8.97;43.27;98931.84;4964911;28;20053;-77
2024/03/23 03:52:03;;;;;;;4.43;2.47;;;;;;;8.89;43.26;98919.34;4987022;28;20038;-77
2024/03/23 03:54:29;;;;;;;9.40;2.45;;;;;;;8.90;43.15;98927.97;4930091;28;20125;-77
2024/03/23 03:56:54;;;;;;;3.58;2.58;;;;;;;8.91;43.00;98927.06;4930622;28;20038;-77
2024/03/23 03:59:20;;;;;;;4.03;2.70;;;;;;;8.90;43.17;98928.81;4946269;28;20479;-77
2024/03/23 04:01:46;;;;;;;3.60;2.35;;;;;;;8.83;43.23;98925.78;4962264;28;20034;-77
2024/03/23 04:04:11;;;;;;;3.13;2.40;;;;;;;8.87;43.21;98935.06;4930024;28;20075;-77
2024/03/23 04:06:36;;;;;;;3.83;2.47;;;;;;;8.82;43.03;98923.28;4929980;28;20038;-77
2024/03/23 04:09:02;;;;;;;3.25;2.28;;;;;;;8.82;43.35;98924.13;4929972;28;20430;-77
2024/03/23 04:11:28;;;;;;;4.03;2.33;;;;;;;8.81;43.18;98919.03;4945382;28;20130;-77
2024/03/23 04:13:57;;;;;;;5.95;2.30;;;;;;;8.76;43.37;98929.72;4962029;28;20030;-78
2024/03/23 04:16:29;;;;;;;4.65;2.95;;;;;;;8.81;43.30;98934.63;4962026;28;20478;-76
2024/03/23 04:18:54;;;;;;;4.00;2.30;;;;;;;8.93;43.18;98933.81;4929573;28;20039;-76
2024/03/23 04:21:21;;;;;;;3.67;2.60;;;;;;;9.24;42.66;98943.00;4929376;28;20053;-76
2024/03/23 04:23:46;;;;;;;4.03;2.63;;;;;;;9.58;42.26;98940.72;4958374;28;20116;-76
2024/03/23 04:26:12;;;;;;;3.80;2.50;;;;;;;9.94;41.25;98933.84;4959073;28;20043;-76
2024/03/23 04:28:38;;;;;;;3.63;2.33;;;;;;;10.49;40.22;98939.53;4942954;28;20042;-76
2024/03/23 04:31:04;;;;;;;3.80;2.42;;;;;;;11.02;39.20;98933.94;4942868;28;20039;-76
2024/03/23 04:33:29;;;;;;;5.05;2.78;;;;;;;11.71;38.00;98948.72;4926980;28;20055;-77
2024/03/23 04:35:55;;;;;;;4.22;2.60;;;;;;;12.36;36.72;98941.06;4926383;28;20109;-76
2024/03/23 04:38:20;;;;;;;3.47;2.20;;;;;;;13.02;35.76;98937.47;4943104;28;20482;-77
2024/03/23 04:40:59;;;;;;;3.42;2.30;;;;;;;13.71;34.29;98943.91;4975808;28;20498;-76
2024/03/23 04:43:25;;;;;;;4.35;2.35;;;;;;;14.38;33.30;98946.88;4943172;28;20411;-78
2024/03/23 04:45:51;;;;;;;4.63;2.33;;;;;;;14.98;32.15;98947.59;4947739;28;20026;-77
2024/03/23 04:48:17;;;;;;;3.33;2.53;;;;;;;15.61;31.47;98940.09;4993776;28;20049;-78
2024/03/23 04:50:43;;;;;;;6.07;2.58;;;;;;;16.22;30.40;98951.91;4961618;28;20030;-78
2024/03/23 04:53:08;;;;;;;4.03;2.35;;;;;;;16.75;29.65;98940.56;4960652;28;20042;-77
2024/03/23 04:55:34;;;;;;;4.78;2.28;;;;;;;17.30;28.90;98946.59;4959383;28;20034;-76
2024/03/23 04:57:59;;;;;;;4.03;2.83;;;;;;;17.75;28.41;98950.81;4992166;28;20113;-77
2024/03/23 05:00:26;;;;;;;4.70;2.65;;;;;;;18.30;27.64;98949.56;4961362;28;20027;-77
2024/03/23 05:02:52;;;;;;;3.80;2.75;;;;;;;18.79;26.97;98947.00;4977766;28;20030;-77
2024/03/23 05:05:18;;;;;;;4.45;2.85;;;;;;;19.32;26.52;98936.06;4993716;28;20080;-77
2024/03/23 05:07:43;;;;;;;5.25;3.00;;;;;;;19.86;25.66;98946.88;4961775;28;20482;-77
2024/03/23 05:10:10;;;;;;;5.22;2.70;;;;;;;20.36;25.27;98949.28;4977331;28;20098;-76
2024/03/23 05:12:39;;;;;;;4.15;3.05;;;;;;;20.89;24.56;98936.16;4977658;28;20474;-77
2024/03/23 05:15:05;;;;;;;11.95;3.30;;;;;;;21.54;23.62;98947.19;4977075;28;20087;-79
2024/03/23 05:17:32;;;;;;;6.35;3.85;;;;;;;21.92;23.44;98952.38;4961321;28;20038;-78
2024/03/23 05:19:58;;;;;;;9.75;7.10;;;;;;;22.39;23.04;98949.31;4961480;28;20029;-79
2024/03/23 05:22:24;;;;;;;15.07;9.13;;;;;;;22.85;22.43;98955.25;4961489;28;20041;-77
2024/03/23 05:24:50;;;;;;;13.88;10.43;;;;;;;23.28;22.10;98950.75;4977274;28;20120;-74
2024/03/23 05:27:15;;;;;;;17.77;11.32;;;;;;;23.68;21.70;98950.16;4977087;28;20089;-74
2024/03/23 05:29:41;;;;;;;19.42;9.93;;;;;;;24.06;20.90;98954.28;4992378;28;20069;-77
2024/03/23 05:32:07;;;;;;;13.02;9.07;;;;;;;24.34;20.50;98948.84;4976848;28;20041;-78
2024/03/23 05:34:32;;;;;;;3.88;2.80;;;;;;;24.89;28.61;98949.56;4978966;28;20027;-77
2024/03/23 05:36:58;;;;;;;3.67;2.17;;;;;;;25.66;31.00;98956.28;4978394;28;20049;-74
2024/03/23 05:39:24;;;;;;;7.35;2.72;;;;;;;26.15;29.07;98944.19;4992588;28;20022;-74
2024/03/23 05:41:49;;;;;;;9.05;4.10;;;;;;;26.34;24.63;98945.94;4992520;28;20042;-73
2024/03/23 05:44:15;;;;;;;14.45;9.15;;;;;;;26.33;21.80;98935.47;4991763;28;20069;-74
2024/03/23 05:46:41;;;;;;;10.60;5.72;;;;;;;26.45;23.77;98944.44;4992666;28;20434;-73
2024/03/23 05:49:06;;;;;;;12.80;7.18;;;;;;;26.51;21.20;98940.91;4968766;28;20055;-73
2024/03/23 05:51:32;;;;;;;15.63;6.40;;;;;;;26.57;20.72;98944.59;4952294;28;20110;-74
2024/03/23 05:53:57;;;;;;;9.93;5.82;;;;;;;26.64;20.21;98933.81;4933982;29;20059;-73
2024/03/23 05:56:22;;;;;;;10.90;5.47;;;;;;;26.71;19.80;98932.78;4936798;29;20043;-72
2024/03/23 05:58:48;;;;;;;10.50;5.50;;;;;;;26.77;19.13;98932.94;4920604;29;20053;-74
2024/03/23 06:01:14;;;;;;;8.95;5.18;;;;;;;26.82;19.26;98941.13;4944821;28;20046;-75
2024/03/23 06:03:40;;;;;;;7.00;4.78;;;;;;;26.86;18.82;98937.00;4971138;28;20045;-75
2024/03/23 06:06:10;;;;;;;10.60;4.95;;;;;;;26.91;18.37;98923.75;4972164;28;20026;-75
2024/03/23 06:08:35;;;;;;;8.70;4.43;;;;;;;27.11;18.23;98923.59;4972576;28;20502;-78
2024/03/23 06:11:01;;;;;;;6.50;4.57;;;;;;;27.27;18.46;98924.88;4955972;28;20026;-76
2024/03/23 06:13:29;;;;;;;7.63;4.93;;;;;;;27.34;18.49;98917.63;4972766;28;20042;-75
2024/03/23 06:15:55;;;;;;;6.70;5.00;;;;;;;27.42;18.33;98917.34;4972959;28;20497;-75
2024/03/23 06:18:20;;;;;;;9.15;4.50;;;;;;;27.53;18.10;98917.63;4955883;28;20034;-76
2024/03/23 06:20:46;;;;;;;11.85;4.93;;;;;;;27.67;17.97;98924.47;4939887;28;20033;-75
2024/03/23 06:23:12;;;;;;;8.95;5.15;;;;;;;27.84;17.89;98918.53;4939860;28;20530;-75
2024/03/23 06:25:38;;;;;;;11.57;6.35;;;;;;;27.94;17.71;98924.16;4970509;28;20046;-76
2024/03/23 06:28:04;;;;;;;9.20;6.22;;;;;;;28.08;17.42;98925.66;4939537;28;20513;-74
2024/03/23 06:30:30;;;;;;;13.93;6.80;;;;;;;28.19;17.28;98920.56;4971870;28;20105;-77
2024/03/23 06:32:55;;;;;;;9.45;5.72;;;;;;;28.27;17.45;98931.00;4939742;28;20160;-77
2024/03/23 06:35:21;;;;;;;12.45;6.70;;;;;;;28.34;17.02;98926.34;4939575;28;20047;-77
2024/03/23 06:37:46;;;;;;;9.55;5.57;;;;;;;28.38;17.02;98924.03;4955473;28;20490;-77
2024/03/23 06:40:12;;;;;;;9.77;5.82;;;;;;;28.44;16.94;98923.13;4972982;28;20038;-76
2024/03/23 06:42:37;;;;;;;7.75;5.53;;;;;;;28.54;16.71;98925.25;4955220;28;20510;-75
2024/03/23 06:45:06;;;;;;;8.88;5.53;;;;;;;28.55;16.98;98921.53;4955492;28;20489;-74
2024/03/23 06:47:31;;;;;;;8.77;5.03;;;;;;;28.61;16.72;98926.00;4958273;28;20053;-76
2024/03/23 06:49:57;;;;;;;10.35;5.40;;;;;;;28.66;16.95;98926.94;4974795;28;20023;-76
2024/03/23 06:52:23;;;;;;;11.43;5.13;;;;;;;28.71;16.62;98925.44;4958551;28;20077;-75
2024/03/23 06:54:48;;;;;;;10.38;4.80;;;;;;;28.76;16.65;98931.72;4974479;28;20034;-76
2024/03/23 06:57:14;;;;;;;9.60;5.00;;;;;;;28.85;16.75;98924.97;4974131;28;20426;-76
2024/03/23 06:59:39;;;;;;;8.30;4.70;;;;;;;28.92;16.97;98927.53;4958395;28;20121;-76
2024/03/23 07:02:08;;;;;;;12.70;5.65;;;;;;;28.92;16.78;98924.84;4942572;28;20026;-75
2024/03/23 07:04:34;;;;;;;16.98;11.02;;;;;;;29.08;16.49;98926.03;4955218;28;20031;-75
2024/03/23 07:06:59;;;;;;;17.95;6.78;;;;;;;29.14;16.82;98927.78;4939228;28;20031;-75
2024/03/23 07:09:31;;;;;;;12.07;6.43;;;;;;;29.20;16.65;98929.56;4972134;28;20027;-76
2024/03/23 07:11:58;;;;;;;13.77;6.50;;;;;;;28.98;16.65;98940.06;4939102;28;20104;-76
2024/03/23 07:14:23;;;;;;;13.45;6.70;;;;;;;29.17;16.97;98934.59;4955187;28;20053;-75
2024/03/23 07:16:49;;;;;;;18.60;7.10;;;;;;;29.33;16.74;98927.72;4954817;28;20610;-77
2024/03/23 07:19:18;;;;;;;12.15;6.35;;;;;;;29.42;17.06;98927.09;4971209;28;20027;-75
2024/03/23 07:21:44;;;;;;;15.90;7.47;;;;;;;29.62;16.71;98930.47;4972831;28;20031;-77
2024/03/23 07:24:09;;;;;;;15.45;6.60;;;;;;;29.75;16.50;98932.91;4938707;28;20038;-77
2024/03/23 07:26:35;;;;;;;11.43;7.13;;;;;;;30.08;16.43;98934.13;4972721;28;20031;-75
2024/03/23 07:29:00;;;;;;;12.07;7.20;;;;;;;30.38;16.28;98936.59;4938963;28;20097;-76
2024/03/23 07:31:26;;;;;;;12.63;6.20;;;;;;;30.74;16.18;98928.31;4972151;28;20089;-77
2024/03/23 07:33:51;;;;;;;10.88;6.70;;;;;;;31.10;15.80;98927.03;4955150;28;20045;-76
2024/03/23 07:36:17;;;;;;;11.65;5.85;;;;;;;31.41;15.50;98918.53;4954231;28;20414;-77
2024/03/23 07:38:44;;;;;;;15.02;5.70;;;;;;;31.98;15.19;98922.81;4938973;28;20039;-76
2024/03/23 07:41:10;;;;;;;;;;;;;;;32.61;14.15;98915.88;4923434;28;20031;-76
2024/03/23 07:43:40;;;;;;;7.97;5.60;;;;;;;33.09;14.16;98918.69;4938813;28;20285;-77
2024/03/23 07:46:05;;;;;;;7.47;4.47;;;;;;;34.02;13.67;98913.78;4923444;28;20039;-77
2024/03/23 07:48:31;;;;;;;11.02;4.60;;;;;;;34.71;12.80;98914.41;4954662;28;20062;-76
2024/03/23 07:51:01;;;;;;;8.13;5.07;;;;;;;35.24;12.79;98912.19;4954405;28;20035;-76
2024/03/23 07:53:27;;;;;;;9.73;4.57;;;;;;;36.46;11.54;98911.91;4954834;28;20041;-78
2024/03/23 07:56:00;;;;;;;6.57;4.47;;;;;;;37.28;10.86;98918.56;4939019;28;20042;-71
2024/03/23 07:58:26;;;;;;;12.75;4.72;;;;;;;38.25;10.67;98913.81;4957750;28;20784;-71
2024/03/23 08:00:52;;;;;;;6.78;3.88;;;;;;;39.07;10.03;98919.81;4958224;28;20026;-82
2024/03/23 08:03:18;;;;;;;8.25;4.65;;;;;;;38.94;10.05;98918.69;4927522;28;20498;-72
2024/03/23 08:05:43;;;;;;;5.50;4.07;;;;;;;38.05;10.73;98914.91;4962002;28;20046;-72
2024/03/23 08:08:09;;;;;;;8.35;5.40;;;;;;;36.88;11.71;98915.13;4977425;28;20041;-72
2024/03/23 08:10:35;;;;;;;11.90;7.10;;;;;;;35.60;14.17;98909.38;4947057;28;20022;-77
2024/03/23 08:13:00;;;;;;;9.40;3.05;;;;;;;34.49;16.70;98910.09;4961253;28;20041;-75
2024/03/23 08:15:26;;;;;;;8.68;3.58;;;;;;;33.20;16.69;98919.59;4996098;28;20026;-82
2024/03/23 08:17:51;;;;;;;11.77;3.75;;;;;;;32.44;17.87;98893.59;4961687;28;20582;-74
2024/03/23 08:20:17;;;;;;;10.35;7.30;;;;;;;32.08;17.58;98902.13;4961117;28;20502;-73
2024/03/23 08:22:42;;;;;;;13.48;5.90;;;;;;;31.69;17.95;98896.00;4977062;28;20035;-74
2024/03/23 08:25:08;;;;;;;8.40;6.60;;;;;;;31.50;17.55;98900.88;4961455;28;20041;-77
2024/03/23 08:27:34;;;;;;;14.18;9.10;;;;;;;31.50;16.72;98899.00;4945916;28;20026;-80
2024/03/23 08:30:00;;;;;;;12.23;6.80;;;;;;;31.16;17.50;98892.88;4976973;28;20081;-80
2024/03/23 08:32:25;;;;;;;15.02;9.05;;;;;;;31.04;17.72;98895.66;4994215;28;20285;-77
2024/03/23 08:34:51;;;;;;;11.77;8.48;;;;;;;30.92;17.56;98895.72;4993784;28;20034;-77
2024/03/23 08:37:16;;;;;;;13.52;8.07;;;;;;;30.96;18.21;98890.66;4960320;28;20026;-77
2024/03/23 08:39:45;;;;;;;9.68;6.90;;;;;;;30.90;18.65;98894.34;4993916;28;20041;-77
2024/03/23 08:42:10;;;;;;;8.38;5.10;;;;;;;30.65;19.06;98876.72;4993852;28;20694;-77
2024/03/23 08:44:36;;;;;;;10.85;5.53;;;;;;;30.69;18.86;98885.94;4944328;28;20062;-77
2024/03/23 08:47:01;;;;;;;7.90;4.85;;;;;;;30.33;18.48;98879.94;4960261;28;20062;-78
2024/03/23 08:49:27;;;;;;;8.68;5.53;;;;;;;30.41;17.77;98876.03;4976010;28;20042;-75
2024/03/23 08:51:52;;;;;;;8.00;4.45;;;;;;;30.26;17.81;98879.28;4945089;28;20088;-78
2024/03/23 08:54:20;;;;;;;8.45;4.40;;;;;;;30.22;18.84;98873.56;4945478;28;20034;-76
2024/03/23 08:56:45;;;;;;;6.35;4.10;;;;;;;30.27;18.15;98875.53;4995112;28;20030;-76
2024/03/23 08:59:11;;;;;;;5.88;4.15;;;;;;;30.22;18.07;98865.50;4976971;28;20552;-75
2024/03/23 09:01:37;;;;;;;8.77;4.70;;;;;;;30.15;18.07;98870.19;4977454;28;20500;-78
2024/03/23 09:04:02;;;;;;;7.32;4.38;;;;;;;30.14;18.86;98865.84;4961366;28;20030;-76
2024/03/23 09:06:28;;;;;;;7.88;4.15;;;;;;;30.07;19.46;98857.94;4994625;28;20077;-77
2024/03/23 09:08:53;;;;;;;8.32;3.90;;;;;;;30.06;18.03;98856.31;4960668;28;20041;-76
2024/03/23 09:11:19;;;;;;;8.50;3.70;;;;;;;29.84;18.02;98850.81;4994350;28;20389;-77
2024/03/23 09:13:44;;;;;;;6.65;3.70;;;;;;;29.41;18.06;98852.91;4994437;28;20030;-76
2024/03/23 09:16:10;;;;;;;6.53;3.38;;;;;;;29.26;18.20;98849.88;4961180;28;20038;-76
2024/03/23 09:18:36;;;;;;;5.53;3.38;;;;;;;29.42;19.27;98845.63;4961152;28;20031;-76
2024/03/23 09:21:02;;;;;;;6.07;3.60;;;;;;;29.58;19.45;98841.38;4961060;28;20056;-77
2024/03/23 09:23:28;;;;;;;8.55;3.00;;;;;;;29.50;18.86;98844.44;4945058;28;20092;-77
2024/03/23 09:25:53;;;;;;;4.38;2.92;;;;;;;29.50;18.96;98831.81;4976913;28;20026;-78
2024/03/23 09:28:19;;;;;;;4.97;3.22;;;;;;;29.57;19.54;98827.13;4976790;28;20042;-77
2024/03/23 09:30:44;;;;;;;5.00;3.60;;;;;;;29.35;19.54;98837.72;4960651;28;20022;-76
2024/03/23 09:33:13;;;;;;;5.63;3.20;;;;;;;29.30;18.88;98834.09;4977125;28;20045;-77
2024/03/23 09:35:42;;;;;;;5.55;3.65;;;;;;;29.09;17.69;98825.56;4994267;28;20498;-76
2024/03/23 09:38:08;;;;;;;4.00;3.00;;;;;;;28.74;18.79;98818.34;4960225;28;20069;-79
2024/03/23 09:40:34;;;;;;;5.43;3.20;;;;;;;28.67;19.60;98815.78;4960527;28;20121;-76
2024/03/23 09:43:00;;;;;;;3.90;3.05;;;;;;;28.45;18.83;98817.34;4943598;28;20035;-76
2024/03/23 09:45:28;;;;;;;4.78;3.13;;;;;;;28.37;19.54;98805.09;4976515;28;20034;-77
2024/03/23 09:47:57;;;;;;;4.32;2.95;;;;;;;28.32;20.37;98808.47;4976287;28;20505;-76
2024/03/23 09:50:23;;;;;;;5.78;3.00;;;;;;;28.29;19.77;98803.56;4993971;28;20106;-76
2024/03/23 09:52:48;;;;;;;5.35;2.95;;;;;;;27.98;20.82;98784.00;4960154;28;20058;-76
2024/03/23 09:55:14;;;;;;;4.88;2.90;;;;;;;27.95;20.41;98786.34;4976221;28;20441;-76
2024/03/23 09:57:40;;;;;;;6.30;4.25;;;;;;;27.88;20.35;98781.06;4976295;28;20414;-75
2024/03/23 10:00:07;;;;;;;6.43;5.07;;;;;;;27.79;20.21;98780.53;4959957;28;20026;-75
2024/03/23 10:02:33;;;;;;;6.28;4.13;;;;;;;27.82;20.14;98783.81;4993710;28;20041;-75
2024/03/23 10:04:58;;;;;;;6.88;5.43;;;;;;;27.78;20.22;98775.41;4960073;28;20045;-75
2024/03/23 10:07:25;;;;;;;7.40;4.32;;;;;;;27.62;18.83;98771.50;4976306;28;20038;-76
2024/03/23 10:09:51;;;;;;;5.53;4.60;;;;;;;27.45;20.07;98768.63;4959998;28;20108;-77
2024/03/23 10:12:18;;;;;;;6.28;3.78;;;;;;;27.48;21.48;98767.38;4976187;28;20042;-76
2024/03/23 10:14:43;;;;;;;8.68;6.03;;;;;;;27.51;21.34;98764.25;4975272;28;20050;-76
2024/03/23 10:17:24;;;;;;;5.07;3.50;;;;;;;27.25;18.75;98763.50;4975186;28;20405;-77
2024/03/23 10:19:51;;;;;;;4.78;2.75;;;;;;;26.57;18.83;98753.69;4976399;28;20068;-77
2024/03/23 10:22:26;;;;;;;4.80;3.45;;;;;;;26.62;20.21;98757.34;4943118;28;20073;-78
2024/03/23 10:24:52;;;;;;;4.55;2.80;;;;;;;26.56;19.43;98758.22;4961141;28;20093;-77
2024/03/23 10:27:18;;;;;;;4.20;2.78;;;;;;;26.21;19.41;98747.25;4975766;28;20042;-78
2024/03/23 10:29:50;;;;;;;4.45;3.33;;;;;;;26.18;19.68;98741.25;4943458;28;20109;-77
2024/03/23 10:32:17;;;;;;;6.63;2.90;;;;;;;26.06;19.83;98734.16;4976426;28;20073;-77
2024/03/23 10:34:42;;;;;;;4.95;3.42;;;;;;;26.07;20.07;98725.94;4959958;28;20109;-77
2024/03/23 10:37:08;;;;;;;7.80;3.42;;;;;;;26.01;20.66;98732.13;4959475;28;20034;-77
2024/03/23 10:39:35;;;;;;;4.30;2.78;;;;;;;25.96;19.88;98731.94;4959489;28;20018;-77
2024/03/23 10:42:04;;;;;;;4.97;2.65;;;;;;;25.86;20.65;98720.94;4975706;28;20081;-77
2024/03/23 10:44:30;;;;;;;4.18;2.65;;;;;;;25.87;21.24;98714.53;4960264;28;20485;-77
2024/03/23 10:47:00;;;;;;;7.30;2.35;;;;;;;25.68;20.36;98711.81;4975501;28;20061;-77
2024/03/23 10:49:29;;;;;;;6.32;2.17;;;;;;;25.63;20.91;98706.25;4975337;28;20580;-77
2024/03/23 10:51:56;;;;;;;3.67;2.40;;;;;;;25.70;21.58;98701.69;4959231;28;20038;-77
2024/03/23 10:54:22;;;;;;;2.72;1.67;;;;;;;25.20;19.13;98702.34;4954140;28;20035;-78
2024/03/23 10:56:47;;;;;;;2.85;1.77;;;;;;;24.81;19.88;98693.50;4954971;28;20030;-79
2024/03/23 10:59:13;;;;;;;3.75;2.10;;;;;;;24.56;18.79;98702.16;4924069;28;20046;-77
2024/03/23 11:01:57;;;;;;;3.33;2.05;;;;;;;23.99;21.59;98692.97;4954900;28;20046;-78
2024/03/23 11:04:49;;;;;;;3.95;2.38;;;;;;;23.70;21.68;98691.47;4939598;28;20037;-79
2024/03/23 11:07:23;;;;;;;3.53;2.10;;;;;;;23.56;21.51;98694.13;4968545;28;20031;-78
2024/03/23 11:09:51;;;;;;;3.42;1.90;;;;;;;23.58;23.17;98689.41;4955308;28;20121;-78
2024/03/23 11:12:32;;;;;;;5.97;2.20;;;;;;;23.43;22.26;98686.91;4972213;28;20053;-78
2024/03/23 11:15:06;;;;;;;3.22;2.22;;;;;;;23.21;25.60;98678.25;4955169;28;20563;-87
2024/03/23 11:17:32;;;;;;;7.95;2.30;;;;;;;23.16;24.95;98662.06;4940253;28;20053;-83
2024/03/23 11:20:01;;;;;;;9.35;2.40;;;;;;;23.18;24.75;98672.50;4939122;28;20486;-82
2024/03/23 11:22:50;;;;;;;6.70;2.30;;;;;;;23.01;24.55;98661.34;4939829;28;20039;-80
2024/03/23 11:25:23;;;;;;;7.63;2.30;;;;;;;22.92;24.30;98653.53;4943122;28;20410;-83
2024/03/23 11:27:51;;;;;;;6.95;2.20;;;;;;;22.88;24.65;98648.81;4954985;28;20030;-77
2024/03/23 11:30:21;;;;;;;5.50;1.88;;;;;;;22.77;24.95;98645.72;4954738;28;20149;-79